Lady Alliaura — FGG8490 — position and weather

sailwx.info

Track history (hours):
 
Tides and Currents Weather Stations Pressure Air Temp Water Temp Dewpoint Dewpoint Depression Visibility Wind Speed Wind Dir Waves Ship Positions

Lady Alliaura

Last reported at 2018-Jul-09 13:36 UTC. Time now 2018-Jul-22 22:07 UTC.
Position N 18°02' W 063°05'.
Warning: this ship's position is 13 days out of date.

Length 22 m.

Type: Sailing vessel. MMSI: 227055470.

Date/timePositionNaut miles runAvg speedWind from/ knotsBaromVisibWave heightAir tempDewpointWater temp
2018-Jul-09 13:36N 18°02' W 063°05'0 0.0
2018-Jul-07 16:35N 18°02' W 063°05'0 0.0
2018-Jul-07 16:23N 18°02' W 063°05'0 0.0
2018-Jul-07 15:56N 18°02' W 063°05'0 0.0
2018-Jul-07 15:26N 18°02' W 063°05'0 0.0
2018-Jul-07 14:56N 18°02' W 063°05'0 0.0
2018-Jul-07 14:26N 18°02' W 063°05'0 0.0
2018-Jul-06 19:30N 18°02' W 063°05'0 0.0
2018-Jul-06 18:51N 18°02' W 063°05'0 0.0
2018-Jul-06 18:09N 18°02' W 063°05'0 0.0
2018-Jul-06 17:51N 18°02' W 063°05'0 0.0
2018-Jul-06 17:24N 18°02' W 063°05'0 0.0
2018-Jul-06 16:51N 18°02' W 063°05'0 0.0
2018-Jul-06 16:21N 18°02' W 063°05'0 0.0
2018-Jul-06 15:54N 18°02' W 063°05'0 0.0
2018-Jul-05 19:53N 18°02' W 063°05'0 0.0
2018-Jul-04 14:19N 18°02' W 063°05'0 0.0
2018-Jul-04 14:00N 18°02' W 063°05'1 1.0
2018-Jul-04 13:24N 18°02' W 063°06'0 0.1
2018-Jul-04 12:56N 18°02' W 063°06'0 0.0
2018-Jul-04 12:18N 18°02' W 063°06'0 0.0
2018-Jul-04 11:45N 18°02' W 063°06'0 0.0
2018-Jul-04 11:30N 18°02' W 063°06'0 0.0
2018-Jul-04 10:51N 18°02' W 063°06'0 0.0
2018-Jul-04 10:21N 18°02' W 063°06'0 0.0
2018-Jul-04 09:51N 18°02' W 063°06'0 0.0
2018-Jul-04 09:24N 18°02' W 063°06'0 0.0
2018-Jul-04 08:54N 18°02' W 063°06'0 0.0
2018-Jul-04 08:24N 18°02' W 063°06'0 0.0
2018-Jul-04 07:54N 18°02' W 063°06'0 0.0
2018-Jul-04 07:24N 18°02' W 063°06'0 0.0
2018-Jul-04 06:51N 18°02' W 063°06'0 0.0
2018-Jul-04 06:24N 18°02' W 063°06'0 0.0
2018-Jul-04 05:57N 18°02' W 063°06'0 0.0
2018-Jul-04 05:27N 18°02' W 063°06'0 0.0
2018-Jul-04 04:58N 18°02' W 063°06'0 0.0
2018-Jul-04 04:25N 18°02' W 063°06'0 0.0
2018-Jul-04 04:00N 18°02' W 063°06'0 0.0
2018-Jul-04 03:30N 18°02' W 063°06'0 0.0
2018-Jul-04 03:00N 18°02' W 063°06'0 0.0
2018-Jul-04 02:30N 18°02' W 063°06'0 0.0
2018-Jul-04 02:00N 18°02' W 063°06'0 0.0
2018-Jul-04 01:18N 18°02' W 063°06'1 1.6
2018-Jul-04 00:58N 18°02' W 063°06'4 9.1
2018-Jul-04 00:30N 17°58' W 063°04'5 9.9
2018-Jul-04 00:00N 17°53' W 063°03'5 9.5
2018-Jul-03 23:30N 17°49' W 063°01'232 8.9
2018-Jul-02 21:26N 14°27' W 061°02'3 8.0
2018-Jul-02 21:00N 14°27' W 060°59'4 7.5
2018-Jul-02 20:30N 14°27' W 060°55'3 5.2
2018-Jul-02 19:59N 14°28' W 060°53'0 0.0
2018-Jul-02 19:29N 14°28' W 060°53'0 0.1
2018-Jul-02 18:59N 14°28' W 060°53'0 0.0
2018-Jul-02 18:29N 14°28' W 060°53'0 0.0
2018-Jul-02 17:59N 14°28' W 060°53'0 0.0
2018-Jul-02 17:29N 14°28' W 060°53'0 0.0
2018-Jul-02 16:47N 14°28' W 060°53'0 0.0
2018-Jul-02 16:29N 14°28' W 060°53'0 0.0
2018-Jul-02 15:59N 14°28' W 060°53'0 0.1
2018-Jul-02 15:29N 14°28' W 060°53'0 0.0
2018-Jul-02 14:59N 14°28' W 060°53'0 0.0
2018-Jul-02 14:29N 14°28' W 060°53'0 0.0
2018-Jul-02 13:56N 14°28' W 060°53'0 0.0
2018-Jul-02 13:26N 14°28' W 060°53'0 0.0
2018-Jul-02 12:56N 14°28' W 060°53'2 3.9
2018-Jul-02 12:28N 14°27' W 060°54'0 0.8
2018-Jul-02 11:58N 14°26' W 060°53'0 0.0
2018-Jul-02 11:28N 14°26' W 060°53'0 0.0
2018-Jul-02 10:49N 14°26' W 060°53'0 0.0
2018-Jul-02 10:16N 14°26' W 060°53'0 0.0
2018-Jul-02 09:58N 14°26' W 060°53'0 0.0
2018-Jul-02 09:28N 14°26' W 060°53'0 0.0
2018-Jul-02 08:58N 14°26' W 060°53'0 0.0
2018-Jul-02 08:28N 14°26' W 060°53'0 0.0
2018-Jul-02 07:58N 14°26' W 060°53'0 0.0
2018-Jul-02 07:28N 14°26' W 060°53'0 0.0
2018-Jul-02 06:55N 14°26' W 060°53'0 0.0
2018-Jul-02 06:28N 14°26' W 060°53'0 0.0
2018-Jul-02 05:58N 14°26' W 060°53'0 0.0
2018-Jul-02 05:28N 14°26' W 060°53'0 0.0
2018-Jul-02 04:58N 14°26' W 060°53'0 0.0
2018-Jul-02 04:29N 14°26' W 060°53'0 0.0
2018-Jul-02 03:59N 14°26' W 060°53'0 0.0
2018-Jul-02 03:23N 14°26' W 060°53'0 0.0
2018-Jul-02 02:59N 14°26' W 060°53'0 0.7
2018-Jul-02 02:30N 14°27' W 060°54'7 6.3
2018-Jul-02 01:25N 14°20' W 060°56'  
Track history (hours):
 
Tides and Currents Weather Stations Pressure Air Temp Water Temp Dewpoint Dewpoint Depression Visibility Wind Speed Wind Dir Waves Ship Positions

Lady Alliaura

Last reported at 2018-Jul-09 13:36 UTC. Time now 2018-Jul-22 22:07 UTC.
Position N 18°02' W 063°05'.
Warning: this ship's position is 13 days out of date.

Length 22 m.

Type: Sailing vessel. MMSI: 227055470.

Date/timePositionNaut miles runAvg speedWind from/ knotsBaromVisibWave heightAir tempDewpointWater temp
2018-Jul-09 13:36N 18°02' W 063°05'0 0.0
2018-Jul-07 16:35N 18°02' W 063°05'0 0.0
2018-Jul-07 16:23N 18°02' W 063°05'0 0.0
2018-Jul-07 15:56N 18°02' W 063°05'0 0.0
2018-Jul-07 15:26N 18°02' W 063°05'0 0.0
2018-Jul-07 14:56N 18°02' W 063°05'0 0.0
2018-Jul-07 14:26N 18°02' W 063°05'0 0.0
2018-Jul-06 19:30N 18°02' W 063°05'0 0.0
2018-Jul-06 18:51N 18°02' W 063°05'0 0.0
2018-Jul-06 18:09N 18°02' W 063°05'0 0.0
2018-Jul-06 17:51N 18°02' W 063°05'0 0.0
2018-Jul-06 17:24N 18°02' W 063°05'0 0.0
2018-Jul-06 16:51N 18°02' W 063°05'0 0.0
2018-Jul-06 16:21N 18°02' W 063°05'0 0.0
2018-Jul-06 15:54N 18°02' W 063°05'0 0.0
2018-Jul-05 19:53N 18°02' W 063°05'0 0.0
2018-Jul-04 14:19N 18°02' W 063°05'0 0.0
2018-Jul-04 14:00N 18°02' W 063°05'1 1.0
2018-Jul-04 13:24N 18°02' W 063°06'0 0.1
2018-Jul-04 12:56N 18°02' W 063°06'0 0.0
2018-Jul-04 12:18N 18°02' W 063°06'0 0.0
2018-Jul-04 11:45N 18°02' W 063°06'0 0.0
2018-Jul-04 11:30N 18°02' W 063°06'0 0.0
2018-Jul-04 10:51N 18°02' W 063°06'0 0.0
2018-Jul-04 10:21N 18°02' W 063°06'0 0.0
2018-Jul-04 09:51N 18°02' W 063°06'0 0.0
2018-Jul-04 09:24N 18°02' W 063°06'0 0.0
2018-Jul-04 08:54N 18°02' W 063°06'0 0.0
2018-Jul-04 08:24N 18°02' W 063°06'0 0.0
2018-Jul-04 07:54N 18°02' W 063°06'0 0.0
2018-Jul-04 07:24N 18°02' W 063°06'0 0.0
2018-Jul-04 06:51N 18°02' W 063°06'0 0.0
2018-Jul-04 06:24N 18°02' W 063°06'0 0.0
2018-Jul-04 05:57N 18°02' W 063°06'0 0.0
2018-Jul-04 05:27N 18°02' W 063°06'0 0.0
2018-Jul-04 04:58N 18°02' W 063°06'0 0.0
2018-Jul-04 04:25N 18°02' W 063°06'0 0.0
2018-Jul-04 04:00N 18°02' W 063°06'0 0.0
2018-Jul-04 03:30N 18°02' W 063°06'0 0.0
2018-Jul-04 03:00N 18°02' W 063°06'0 0.0
2018-Jul-04 02:30N 18°02' W 063°06'0 0.0
2018-Jul-04 02:00N 18°02' W 063°06'0 0.0
2018-Jul-04 01:18N 18°02' W 063°06'1 1.6
2018-Jul-04 00:58N 18°02' W 063°06'4 9.1
2018-Jul-04 00:30N 17°58' W 063°04'5 9.9
2018-Jul-04 00:00N 17°53' W 063°03'5 9.5
2018-Jul-03 23:30N 17°49' W 063°01'232 8.9
2018-Jul-02 21:26N 14°27' W 061°02'3 8.0
2018-Jul-02 21:00N 14°27' W 060°59'4 7.5
2018-Jul-02 20:30N 14°27' W 060°55'3 5.2
2018-Jul-02 19:59N 14°28' W 060°53'0 0.0
2018-Jul-02 19:29N 14°28' W 060°53'0 0.1
2018-Jul-02 18:59N 14°28' W 060°53'0 0.0
2018-Jul-02 18:29N 14°28' W 060°53'0 0.0
2018-Jul-02 17:59N 14°28' W 060°53'0 0.0
2018-Jul-02 17:29N 14°28' W 060°53'0 0.0
2018-Jul-02 16:47N 14°28' W 060°53'0 0.0
2018-Jul-02 16:29N 14°28' W 060°53'0 0.0
2018-Jul-02 15:59N 14°28' W 060°53'0 0.1
2018-Jul-02 15:29N 14°28' W 060°53'0 0.0
2018-Jul-02 14:59N 14°28' W 060°53'0 0.0
2018-Jul-02 14:29N 14°28' W 060°53'0 0.0
2018-Jul-02 13:56N 14°28' W 060°53'0 0.0
2018-Jul-02 13:26N 14°28' W 060°53'0 0.0
2018-Jul-02 12:56N 14°28' W 060°53'2 3.9
2018-Jul-02 12:28N 14°27' W 060°54'0 0.8
2018-Jul-02 11:58N 14°26' W 060°53'0 0.0
2018-Jul-02 11:28N 14°26' W 060°53'0 0.0
2018-Jul-02 10:49N 14°26' W 060°53'0 0.0
2018-Jul-02 10:16N 14°26' W 060°53'0 0.0
2018-Jul-02 09:58N 14°26' W 060°53'0 0.0
2018-Jul-02 09:28N 14°26' W 060°53'0 0.0
2018-Jul-02 08:58N 14°26' W 060°53'0 0.0
2018-Jul-02 08:28N 14°26' W 060°53'0 0.0
2018-Jul-02 07:58N 14°26' W 060°53'0 0.0
2018-Jul-02 07:28N 14°26' W 060°53'0 0.0
2018-Jul-02 06:55N 14°26' W 060°53'0 0.0
2018-Jul-02 06:28N 14°26' W 060°53'0 0.0
2018-Jul-02 05:58N 14°26' W 060°53'0 0.0
2018-Jul-02 05:28N 14°26' W 060°53'0 0.0
2018-Jul-02 04:58N 14°26' W 060°53'0 0.0
2018-Jul-02 04:29N 14°26' W 060°53'0 0.0
2018-Jul-02 03:59N 14°26' W 060°53'0 0.0
2018-Jul-02 03:23N 14°26' W 060°53'0 0.0
2018-Jul-02 02:59N 14°26' W 060°53'0 0.7
2018-Jul-02 02:30N 14°27' W 060°54'7 6.3
2018-Jul-02 01:25N 14°20' W 060°56'  

Dump ship's entire track history